sensor_id;sensor_type;location;lat;lon;timestamp;P1;durP1;ratioP1;P2;durP2;ratioP2
23140;SDS011;11739;54.750;9.124;2023-04-15T00:00:58;7.82;;;7.03;;
23140;SDS011;11739;54.750;9.124;2023-04-15T00:03:24;8.27;;;7.47;;
23140;SDS011;11739;54.750;9.124;2023-04-15T00:05:49;8.27;;;7.57;;
23140;SDS011;11739;54.750;9.124;2023-04-15T00:08:14;7.63;;;6.93;;
23140;SDS011;11739;54.750;9.124;2023-04-15T00:10:40;7.93;;;7.13;;
23140;SDS011;11739;54.750;9.124;2023-04-15T00:13:05;7.22;;;6.53;;
23140;SDS011;11739;54.750;9.124;2023-04-15T00:15:30;8.02;;;7.22;;
23140;SDS011;11739;54.750;9.124;2023-04-15T00:17:55;7.45;;;6.75;;
23140;SDS011;11739;54.750;9.124;2023-04-15T00:20:21;8.07;;;7.13;;
23140;SDS011;11739;54.750;9.124;2023-04-15T00:22:46;7.40;;;6.70;;
23140;SDS011;11739;54.750;9.124;2023-04-15T00:25:11;7.63;;;6.93;;
23140;SDS011;11739;54.750;9.124;2023-04-15T00:27:37;7.50;;;6.65;;
23140;SDS011;11739;54.750;9.124;2023-04-15T00:30:02;7.75;;;6.88;;
23140;SDS011;11739;54.750;9.124;2023-04-15T00:32:27;7.10;;;6.50;;
23140;SDS011;11739;54.750;9.124;2023-04-15T00:34:53;7.15;;;6.45;;
23140;SDS011;11739;54.750;9.124;2023-04-15T00:37:18;7.20;;;6.50;;
23140;SDS011;11739;54.750;9.124;2023-04-15T00:39:43;6.95;;;6.25;;
23140;SDS011;11739;54.750;9.124;2023-04-15T00:42:09;6.82;;;6.22;;
23140;SDS011;11739;54.750;9.124;2023-04-15T00:44:34;7.28;;;6.57;;
23140;SDS011;11739;54.750;9.124;2023-04-15T00:46:59;7.20;;;6.50;;
23140;SDS011;11739;54.750;9.124;2023-04-15T00:49:25;7.15;;;6.05;;
23140;SDS011;11739;54.750;9.124;2023-04-15T00:51:50;6.97;;;6.38;;
23140;SDS011;11739;54.750;9.124;2023-04-15T00:54:15;7.50;;;6.10;;
23140;SDS011;11739;54.750;9.124;2023-04-15T00:56:41;6.25;;;5.65;;
23140;SDS011;11739;54.750;9.124;2023-04-15T00:59:06;7.03;;;6.35;;
23140;SDS011;11739;54.750;9.124;2023-04-15T01:01:33;7.10;;;6.22;;
23140;SDS011;11739;54.750;9.124;2023-04-15T01:03:59;6.18;;;5.57;;
23140;SDS011;11739;54.750;9.124;2023-04-15T01:06:24;6.55;;;5.93;;
23140;SDS011;11739;54.750;9.124;2023-04-15T01:08:50;6.57;;;5.78;;
23140;SDS011;11739;54.750;9.124;2023-04-15T01:11:16;6.25;;;5.65;;
23140;SDS011;11739;54.750;9.124;2023-04-15T01:13:41;6.28;;;5.68;;
23140;SDS011;11739;54.750;9.124;2023-04-15T01:16:07;6.40;;;5.80;;
23140;SDS011;11739;54.750;9.124;2023-04-15T01:18:33;6.85;;;6.25;;
23140;SDS011;11739;54.750;9.124;2023-04-15T01:21:00;6.13;;;5.60;;
23140;SDS011;11739;54.750;9.124;2023-04-15T01:23:25;6.75;;;6.15;;
23140;SDS011;11739;54.750;9.124;2023-04-15T01:25:51;6.05;;;5.55;;
23140;SDS011;11739;54.750;9.124;2023-04-15T01:28:17;5.88;;;5.35;;
23140;SDS011;11739;54.750;9.124;2023-04-15T01:30:42;5.97;;;5.43;;
23140;SDS011;11739;54.750;9.124;2023-04-15T01:33:07;6.80;;;5.93;;
23140;SDS011;11739;54.750;9.124;2023-04-15T01:35:33;6.57;;;5.90;;
23140;SDS011;11739;54.750;9.124;2023-04-15T01:38:05;7.35;;;6.65;;
23140;SDS011;11739;54.750;9.124;2023-04-15T01:40:31;6.22;;;5.63;;
23140;SDS011;11739;54.750;9.124;2023-04-15T01:42:57;6.63;;;6.00;;
23140;SDS011;11739;54.750;9.124;2023-04-15T01:45:22;6.55;;;5.95;;
23140;SDS011;11739;54.750;9.124;2023-04-15T01:47:47;5.95;;;5.35;;
23140;SDS011;11739;54.750;9.124;2023-04-15T01:50:13;6.60;;;6.00;;
23140;SDS011;11739;54.750;9.124;2023-04-15T01:52:38;7.10;;;6.28;;
23140;SDS011;11739;54.750;9.124;2023-04-15T01:55:03;7.25;;;6.55;;
23140;SDS011;11739;54.750;9.124;2023-04-15T01:57:29;7.18;;;6.47;;
23140;SDS011;11739;54.750;9.124;2023-04-15T01:59:54;6.47;;;5.88;;
23140;SDS011;11739;54.750;9.124;2023-04-15T02:02:19;7.07;;;6.47;;
23140;SDS011;11739;54.750;9.124;2023-04-15T02:04:45;7.50;;;6.35;;
23140;SDS011;11739;54.750;9.124;2023-04-15T02:07:10;7.20;;;6.60;;
23140;SDS011;11739;54.750;9.124;2023-04-15T02:09:35;7.10;;;6.50;;
23140;SDS011;11739;54.750;9.124;2023-04-15T02:12:01;7.40;;;6.80;;
23140;SDS011;11739;54.750;9.124;2023-04-15T02:14:26;7.13;;;6.53;;
23140;SDS011;11739;54.750;9.124;2023-04-15T02:16:51;7.25;;;6.65;;
23140;SDS011;11739;54.750;9.124;2023-04-15T02:19:16;6.75;;;6.15;;
23140;SDS011;11739;54.750;9.124;2023-04-15T02:21:42;7.00;;;6.40;;
23140;SDS011;11739;54.750;9.124;2023-04-15T02:24:07;7.95;;;7.25;;
23140;SDS011;11739;54.750;9.124;2023-04-15T02:26:32;7.00;;;6.40;;
23140;SDS011;11739;54.750;9.124;2023-04-15T02:28:58;7.75;;;6.57;;
23140;SDS011;11739;54.750;9.124;2023-04-15T02:31:24;7.57;;;6.88;;
23140;SDS011;11739;54.750;9.124;2023-04-15T02:33:49;7.47;;;6.78;;
23140;SDS011;11739;54.750;9.124;2023-04-15T02:36:15;7.32;;;6.65;;
23140;SDS011;11739;54.750;9.124;2023-04-15T02:38:40;7.38;;;6.68;;
23140;SDS011;11739;54.750;9.124;2023-04-15T02:41:05;6.90;;;6.30;;
23140;SDS011;11739;54.750;9.124;2023-04-15T02:43:30;7.00;;;6.40;;
23140;SDS011;11739;54.750;9.124;2023-04-15T02:45:56;7.28;;;6.57;;
23140;SDS011;11739;54.750;9.124;2023-04-15T02:48:21;8.23;;;7.32;;
23140;SDS011;11739;54.750;9.124;2023-04-15T02:50:46;7.88;;;7.07;;
23140;SDS011;11739;54.750;9.124;2023-04-15T02:53:12;7.88;;;6.70;;
23140;SDS011;11739;54.750;9.124;2023-04-15T02:55:37;7.60;;;6.90;;
23140;SDS011;11739;54.750;9.124;2023-04-15T02:58:02;8.27;;;7.20;;
23140;SDS011;11739;54.750;9.124;2023-04-15T03:00:28;7.45;;;6.72;;
23140;SDS011;11739;54.750;9.124;2023-04-15T03:02:56;7.43;;;6.72;;
23140;SDS011;11739;54.750;9.124;2023-04-15T03:05:23;7.18;;;6.55;;
23140;SDS011;11739;54.750;9.124;2023-04-15T03:07:48;7.15;;;6.55;;
23140;SDS011;11739;54.750;9.124;2023-04-15T03:10:13;7.25;;;6.57;;
23140;SDS011;11739;54.750;9.124;2023-04-15T03:12:39;7.47;;;6.75;;
23140;SDS011;11739;54.750;9.124;2023-04-15T03:15:04;8.13;;;7.38;;
23140;SDS011;11739;54.750;9.124;2023-04-15T03:17:30;7.40;;;6.70;;
23140;SDS011;11739;54.750;9.124;2023-04-15T03:19:55;7.07;;;6.47;;
23140;SDS011;11739;54.750;9.124;2023-04-15T03:22:20;7.68;;;6.97;;
23140;SDS011;11739;54.750;9.124;2023-04-15T03:24:46;7.07;;;6.38;;
23140;SDS011;11739;54.750;9.124;2023-04-15T03:27:11;7.10;;;6.40;;
23140;SDS011;11739;54.750;9.124;2023-04-15T03:29:36;6.90;;;6.30;;
23140;SDS011;11739;54.750;9.124;2023-04-15T03:32:02;7.32;;;6.63;;
23140;SDS011;11739;54.750;9.124;2023-04-15T03:34:27;7.03;;;6.43;;
23140;SDS011;11739;54.750;9.124;2023-04-15T03:36:52;6.95;;;6.22;;
23140;SDS011;11739;54.750;9.124;2023-04-15T03:39:17;6.43;;;5.82;;
23140;SDS011;11739;54.750;9.124;2023-04-15T03:41:43;6.10;;;5.50;;
23140;SDS011;11739;54.750;9.124;2023-04-15T03:44:08;5.88;;;5.38;;
23140;SDS011;11739;54.750;9.124;2023-04-15T03:46:33;5.95;;;5.45;;
23140;SDS011;11739;54.750;9.124;2023-04-15T03:48:59;5.88;;;5.38;;
23140;SDS011;11739;54.750;9.124;2023-04-15T03:51:24;6.07;;;5.47;;
23140;SDS011;11739;54.750;9.124;2023-04-15T03:53:49;6.05;;;5.53;;
23140;SDS011;11739;54.750;9.124;2023-04-15T03:56:15;5.97;;;5.38;;
23140;SDS011;11739;54.750;9.124;2023-04-15T03:58:40;5.97;;;5.45;;
23140;SDS011;11739;54.750;9.124;2023-04-15T04:01:05;5.20;;;4.70;;
23140;SDS011;11739;54.750;9.124;2023-04-15T04:03:30;5.40;;;4.90;;
23140;SDS011;11739;54.750;9.124;2023-04-15T04:05:56;5.20;;;4.80;;
23140;SDS011;11739;54.750;9.124;2023-04-15T04:08:21;5.43;;;4.93;;
23140;SDS011;11739;54.750;9.124;2023-04-15T04:10:46;5.32;;;4.80;;
23140;SDS011;11739;54.750;9.124;2023-04-15T04:13:12;5.13;;;4.63;;
23140;SDS011;11739;54.750;9.124;2023-04-15T04:15:37;5.25;;;4.75;;
23140;SDS011;11739;54.750;9.124;2023-04-15T04:18:02;4.55;;;4.15;;
23140;SDS011;11739;54.750;9.124;2023-04-15T04:20:28;4.45;;;4.05;;
23140;SDS011;11739;54.750;9.124;2023-04-15T04:22:53;5.00;;;4.60;;
23140;SDS011;11739;54.750;9.124;2023-04-15T04:25:18;4.53;;;4.15;;
23140;SDS011;11739;54.750;9.124;2023-04-15T04:27:44;4.40;;;4.00;;
23140;SDS011;11739;54.750;9.124;2023-04-15T04:30:09;5.00;;;4.38;;
23140;SDS011;11739;54.750;9.124;2023-04-15T04:32:34;4.38;;;4.07;;
23140;SDS011;11739;54.750;9.124;2023-04-15T04:35:00;4.18;;;3.88;;
23140;SDS011;11739;54.750;9.124;2023-04-15T04:37:25;4.30;;;3.90;;
23140;SDS011;11739;54.750;9.124;2023-04-15T04:39:50;3.90;;;3.55;;
23140;SDS011;11739;54.750;9.124;2023-04-15T04:42:16;4.25;;;3.85;;
23140;SDS011;11739;54.750;9.124;2023-04-15T04:44:41;4.60;;;3.83;;
23140;SDS011;11739;54.750;9.124;2023-04-15T04:47:06;3.90;;;3.60;;
23140;SDS011;11739;54.750;9.124;2023-04-15T04:49:32;3.72;;;3.42;;
23140;SDS011;11739;54.750;9.124;2023-04-15T04:51:57;3.53;;;3.22;;
23140;SDS011;11739;54.750;9.124;2023-04-15T04:54:23;3.72;;;3.42;;
23140;SDS011;11739;54.750;9.124;2023-04-15T04:56:48;4.00;;;3.60;;
23140;SDS011;11739;54.750;9.124;2023-04-15T04:59:13;3.78;;;3.47;;
23140;SDS011;11739;54.750;9.124;2023-04-15T05:01:39;3.13;;;2.92;;
23140;SDS011;11739;54.750;9.124;2023-04-15T05:04:04;3.70;;;3.40;;
23140;SDS011;11739;54.750;9.124;2023-04-15T05:06:29;3.65;;;3.35;;
23140;SDS011;11739;54.750;9.124;2023-04-15T05:08:54;3.88;;;3.58;;
23140;SDS011;11739;54.750;9.124;2023-04-15T05:11:20;3.50;;;3.20;;
23140;SDS011;11739;54.750;9.124;2023-04-15T05:13:45;3.25;;;3.00;;
23140;SDS011;11739;54.750;9.124;2023-04-15T05:16:10;3.70;;;3.38;;
23140;SDS011;11739;54.750;9.124;2023-04-15T05:18:36;3.60;;;3.30;;
23140;SDS011;11739;54.750;9.124;2023-04-15T05:21:01;3.60;;;3.30;;
23140;SDS011;11739;54.750;9.124;2023-04-15T05:23:26;3.42;;;3.13;;
23140;SDS011;11739;54.750;9.124;2023-04-15T05:25:52;3.50;;;3.20;;
23140;SDS011;11739;54.750;9.124;2023-04-15T05:28:17;3.33;;;3.13;;
23140;SDS011;11739;54.750;9.124;2023-04-15T05:30:42;2.80;;;2.60;;
23140;SDS011;11739;54.750;9.124;2023-04-15T05:33:07;3.55;;;3.25;;
23140;SDS011;11739;54.750;9.124;2023-04-15T05:35:33;3.05;;;2.85;;
23140;SDS011;11739;54.750;9.124;2023-04-15T05:37:58;3.50;;;3.20;;
23140;SDS011;11739;54.750;9.124;2023-04-15T05:40:23;3.60;;;3.30;;
23140;SDS011;11739;54.750;9.124;2023-04-15T05:42:49;3.10;;;2.90;;
23140;SDS011;11739;54.750;9.124;2023-04-15T05:45:14;3.15;;;2.95;;
23140;SDS011;11739;54.750;9.124;2023-04-15T05:47:39;3.35;;;3.05;;
23140;SDS011;11739;54.750;9.124;2023-04-15T05:50:05;3.00;;;2.80;;
23140;SDS011;11739;54.750;9.124;2023-04-15T05:52:30;3.17;;;2.97;;
23140;SDS011;11739;54.750;9.124;2023-04-15T05:54:56;3.85;;;3.25;;
23140;SDS011;11739;54.750;9.124;2023-04-15T05:57:21;3.13;;;2.92;;
23140;SDS011;11739;54.750;9.124;2023-04-15T05:59:46;3.10;;;2.90;;
23140;SDS011;11739;54.750;9.124;2023-04-15T06:02:11;2.58;;;2.38;;
23140;SDS011;11739;54.750;9.124;2023-04-15T06:04:37;3.20;;;3.00;;
23140;SDS011;11739;54.750;9.124;2023-04-15T06:07:02;3.10;;;2.80;;
23140;SDS011;11739;54.750;9.124;2023-04-15T06:09:27;3.78;;;3.28;;
23140;SDS011;11739;54.750;9.124;2023-04-15T06:11:53;3.20;;;2.90;;
23140;SDS011;11739;54.750;9.124;2023-04-15T06:14:18;3.65;;;3.10;;
23140;SDS011;11739;54.750;9.124;2023-04-15T06:16:43;3.28;;;2.97;;
23140;SDS011;11739;54.750;9.124;2023-04-15T06:19:09;3.22;;;2.92;;
23140;SDS011;11739;54.750;9.124;2023-04-15T06:21:34;3.03;;;2.83;;
23140;SDS011;11739;54.750;9.124;2023-04-15T06:24:00;3.60;;;3.30;;
23140;SDS011;11739;54.750;9.124;2023-04-15T06:26:25;3.60;;;3.30;;
23140;SDS011;11739;54.750;9.124;2023-04-15T06:28:50;3.40;;;3.10;;
23140;SDS011;11739;54.750;9.124;2023-04-15T06:31:16;4.72;;;3.70;;
23140;SDS011;11739;54.750;9.124;2023-04-15T06:33:41;3.80;;;3.50;;
23140;SDS011;11739;54.750;9.124;2023-04-15T06:36:06;4.70;;;3.65;;
23140;SDS011;11739;54.750;9.124;2023-04-15T06:38:32;5.07;;;3.78;;
23140;SDS011;11739;54.750;9.124;2023-04-15T06:40:57;4.65;;;4.18;;
23140;SDS011;11739;54.750;9.124;2023-04-15T06:43:22;5.00;;;4.38;;
23140;SDS011;11739;54.750;9.124;2023-04-15T06:45:47;5.05;;;4.50;;
23140;SDS011;11739;54.750;9.124;2023-04-15T06:48:13;5.38;;;4.88;;
23140;SDS011;11739;54.750;9.124;2023-04-15T06:50:38;5.40;;;4.85;;
23140;SDS011;11739;54.750;9.124;2023-04-15T06:53:03;5.25;;;4.75;;
23140;SDS011;11739;54.750;9.124;2023-04-15T06:55:29;5.70;;;5.00;;
23140;SDS011;11739;54.750;9.124;2023-04-15T06:57:54;5.60;;;5.00;;
23140;SDS011;11739;54.750;9.124;2023-04-15T07:00:19;6.00;;;5.40;;
23140;SDS011;11739;54.750;9.124;2023-04-15T07:02:45;7.07;;;5.90;;
23140;SDS011;11739;54.750;9.124;2023-04-15T07:05:10;6.88;;;5.90;;
23140;SDS011;11739;54.750;9.124;2023-04-15T07:07:35;7.03;;;6.15;;
23140;SDS011;11739;54.750;9.124;2023-04-15T07:10:00;7.63;;;6.68;;
23140;SDS011;11739;54.750;9.124;2023-04-15T07:12:26;7.30;;;6.47;;
23140;SDS011;11739;54.750;9.124;2023-04-15T07:14:51;7.65;;;5.82;;
23140;SDS011;11739;54.750;9.124;2023-04-15T07:17:16;8.07;;;7.28;;
23140;SDS011;11739;54.750;9.124;2023-04-15T07:19:42;9.15;;;7.22;;
23140;SDS011;11739;54.750;9.124;2023-04-15T07:22:07;8.35;;;7.20;;
23140;SDS011;11739;54.750;9.124;2023-04-15T07:24:32;8.65;;;7.38;;
23140;SDS011;11739;54.750;9.124;2023-04-15T07:26:58;9.27;;;7.82;;
23140;SDS011;11739;54.750;9.124;2023-04-15T07:29:23;8.55;;;7.45;;
23140;SDS011;11739;54.750;9.124;2023-04-15T07:31:48;8.18;;;7.25;;
23140;SDS011;11739;54.750;9.124;2023-04-15T07:34:13;9.25;;;8.00;;
23140;SDS011;11739;54.750;9.124;2023-04-15T07:36:39;9.95;;;8.07;;
23140;SDS011;11739;54.750;9.124;2023-04-15T07:39:04;10.30;;;8.18;;
23140;SDS011;11739;54.750;9.124;2023-04-15T07:41:30;9.23;;;8.02;;
23140;SDS011;11739;54.750;9.124;2023-04-15T07:43:55;8.68;;;7.75;;
23140;SDS011;11739;54.750;9.124;2023-04-15T07:46:20;10.30;;;8.10;;
23140;SDS011;11739;54.750;9.124;2023-04-15T07:48:45;8.98;;;8.07;;
23140;SDS011;11739;54.750;9.124;2023-04-15T07:51:11;9.38;;;8.05;;
23140;SDS011;11739;54.750;9.124;2023-04-15T07:53:36;12.23;;;8.85;;
23140;SDS011;11739;54.750;9.124;2023-04-15T07:56:01;10.27;;;8.40;;
23140;SDS011;11739;54.750;9.124;2023-04-15T07:58:27;11.13;;;9.32;;
23140;SDS011;11739;54.750;9.124;2023-04-15T08:00:52;11.85;;;8.93;;
23140;SDS011;11739;54.750;9.124;2023-04-15T08:03:17;12.18;;;9.68;;
23140;SDS011;11739;54.750;9.124;2023-04-15T08:05:43;16.38;;;10.55;;
23140;SDS011;11739;54.750;9.124;2023-04-15T08:08:08;13.68;;;10.65;;
23140;SDS011;11739;54.750;9.124;2023-04-15T08:10:33;10.93;;;9.68;;
23140;SDS011;11739;54.750;9.124;2023-04-15T08:12:58;13.05;;;9.85;;
23140;SDS011;11739;54.750;9.124;2023-04-15T08:15:24;15.60;;;11.82;;
23140;SDS011;11739;54.750;9.124;2023-04-15T08:17:49;13.88;;;11.57;;
23140;SDS011;11739;54.750;9.124;2023-04-15T08:20:15;16.27;;;12.25;;
23140;SDS011;11739;54.750;9.124;2023-04-15T08:22:40;14.88;;;12.35;;
23140;SDS011;11739;54.750;9.124;2023-04-15T08:25:05;14.93;;;12.63;;
23140;SDS011;11739;54.750;9.124;2023-04-15T08:27:31;17.58;;;14.35;;
23140;SDS011;11739;54.750;9.124;2023-04-15T08:29:56;16.05;;;13.27;;
23140;SDS011;11739;54.750;9.124;2023-04-15T08:32:21;18.17;;;15.38;;
23140;SDS011;11739;54.750;9.124;2023-04-15T08:34:47;16.60;;;14.25;;
23140;SDS011;11739;54.750;9.124;2023-04-15T08:37:12;16.27;;;14.52;;
23140;SDS011;11739;54.750;9.124;2023-04-15T08:39:37;19.33;;;15.63;;
23140;SDS011;11739;54.750;9.124;2023-04-15T08:42:03;17.40;;;14.85;;
23140;SDS011;11739;54.750;9.124;2023-04-15T08:44:33;17.10;;;15.30;;
23140;SDS011;11739;54.750;9.124;2023-04-15T08:47:01;17.92;;;15.73;;
23140;SDS011;11739;54.750;9.124;2023-04-15T08:49:27;18.13;;;15.35;;
23140;SDS011;11739;54.750;9.124;2023-04-15T08:51:52;16.52;;;14.82;;
23140;SDS011;11739;54.750;9.124;2023-04-15T08:54:18;17.92;;;16.02;;
23140;SDS011;11739;54.750;9.124;2023-04-15T08:56:44;19.45;;;17.45;;
23140;SDS011;11739;54.750;9.124;2023-04-15T08:59:09;18.35;;;16.15;;
23140;SDS011;11739;54.750;9.124;2023-04-15T09:01:36;19.15;;;17.02;;
23140;SDS011;11739;54.750;9.124;2023-04-15T09:04:01;19.15;;;16.98;;
23140;SDS011;11739;54.750;9.124;2023-04-15T09:06:27;20.38;;;18.05;;
23140;SDS011;11739;54.750;9.124;2023-04-15T09:08:52;19.33;;;17.30;;
23140;SDS011;11739;54.750;9.124;2023-04-15T09:11:18;21.30;;;17.30;;
23140;SDS011;11739;54.750;9.124;2023-04-15T09:13:43;20.23;;;17.60;;
23140;SDS011;11739;54.750;9.124;2023-04-15T09:16:09;19.55;;;17.45;;
23140;SDS011;11739;54.750;9.124;2023-04-15T09:18:35;19.75;;;17.67;;
23140;SDS011;11739;54.750;9.124;2023-04-15T09:23:30;19.75;;;17.75;;
23140;SDS011;11739;54.750;9.124;2023-04-15T09:25:56;20.42;;;17.98;;
23140;SDS011;11739;54.750;9.124;2023-04-15T09:28:25;21.23;;;17.63;;
23140;SDS011;11739;54.750;9.124;2023-04-15T09:30:50;22.02;;;17.38;;
23140;SDS011;11739;54.750;9.124;2023-04-15T09:33:19;20.55;;;18.00;;
23140;SDS011;11739;54.750;9.124;2023-04-15T09:35:54;19.77;;;17.67;;
23140;SDS011;11739;54.750;9.124;2023-04-15T09:38:24;19.45;;;17.25;;
23140;SDS011;11739;54.750;9.124;2023-04-15T09:40:49;19.42;;;16.55;;
23140;SDS011;11739;54.750;9.124;2023-04-15T09:43:15;19.35;;;17.35;;
23140;SDS011;11739;54.750;9.124;2023-04-15T09:45:45;19.13;;;17.13;;
23140;SDS011;11739;54.750;9.124;2023-04-15T09:48:18;18.30;;;16.42;;
23140;SDS011;11739;54.750;9.124;2023-04-15T09:50:45;18.95;;;16.95;;
23140;SDS011;11739;54.750;9.124;2023-04-15T09:53:14;19.95;;;17.85;;
23140;SDS011;11739;54.750;9.124;2023-04-15T09:55:44;21.45;;;16.75;;
23140;SDS011;11739;54.750;9.124;2023-04-15T09:58:20;20.40;;;16.90;;
23140;SDS011;11739;54.750;9.124;2023-04-15T10:00:47;18.02;;;16.23;;
23140;SDS011;11739;54.750;9.124;2023-04-15T10:03:13;19.55;;;17.60;;
23140;SDS011;11739;54.750;9.124;2023-04-15T10:05:50;20.40;;;17.50;;
23140;SDS011;11739;54.750;9.124;2023-04-15T10:08:17;17.85;;;15.98;;
23140;SDS011;11739;54.750;9.124;2023-04-15T10:10:44;20.58;;;17.08;;
23140;SDS011;11739;54.750;9.124;2023-04-15T10:13:09;18.17;;;16.30;;
23140;SDS011;11739;54.750;9.124;2023-04-15T10:15:36;16.98;;;15.27;;
23140;SDS011;11739;54.750;9.124;2023-04-15T10:18:02;17.65;;;15.95;;
23140;SDS011;11739;54.750;9.124;2023-04-15T10:20:29;18.48;;;16.55;;
23140;SDS011;11739;54.750;9.124;2023-04-15T10:22:54;18.55;;;16.65;;
23140;SDS011;11739;54.750;9.124;2023-04-15T10:25:20;16.60;;;14.85;;
23140;SDS011;11739;54.750;9.124;2023-04-15T10:27:45;17.50;;;15.80;;
23140;SDS011;11739;54.750;9.124;2023-04-15T10:30:10;18.35;;;16.55;;
23140;SDS011;11739;54.750;9.124;2023-04-15T10:32:36;17.67;;;15.82;;
23140;SDS011;11739;54.750;9.124;2023-04-15T10:35:02;16.83;;;15.20;;
23140;SDS011;11739;54.750;9.124;2023-04-15T10:37:32;17.20;;;15.40;;
23140;SDS011;11739;54.750;9.124;2023-04-15T10:39:59;16.60;;;14.95;;
23140;SDS011;11739;54.750;9.124;2023-04-15T10:42:26;17.20;;;15.50;;
23140;SDS011;11739;54.750;9.124;2023-04-15T10:44:58;16.17;;;14.63;;
23140;SDS011;11739;54.750;9.124;2023-04-15T10:47:24;15.82;;;14.32;;
23140;SDS011;11739;54.750;9.124;2023-04-15T10:49:50;16.83;;;15.15;;
23140;SDS011;11739;54.750;9.124;2023-04-15T10:52:17;15.45;;;13.85;;
23140;SDS011;11739;54.750;9.124;2023-04-15T10:54:47;15.68;;;14.13;;
23140;SDS011;11739;54.750;9.124;2023-04-15T10:57:22;15.90;;;14.27;;
23140;SDS011;11739;54.750;9.124;2023-04-15T11:02:21;16.33;;;13.80;;
23140;SDS011;11739;54.750;9.124;2023-04-15T11:05:02;15.35;;;13.95;;
23140;SDS011;11739;54.750;9.124;2023-04-15T11:10:03;14.85;;;13.45;;
23140;SDS011;11739;54.750;9.124;2023-04-15T11:12:36;14.10;;;12.70;;
23140;SDS011;11739;54.750;9.124;2023-04-15T11:15:23;13.55;;;12.15;;
23140;SDS011;11739;54.750;9.124;2023-04-15T11:17:52;13.77;;;12.35;;
23140;SDS011;11739;54.750;9.124;2023-04-15T11:20:17;12.90;;;11.65;;
23140;SDS011;11739;54.750;9.124;2023-04-15T11:22:49;11.57;;;10.48;;
23140;SDS011;11739;54.750;9.124;2023-04-15T11:25:26;12.00;;;10.90;;
23140;SDS011;11739;54.750;9.124;2023-04-15T11:27:53;12.88;;;11.68;;
23140;SDS011;11739;54.750;9.124;2023-04-15T11:30:23;12.40;;;11.10;;
23140;SDS011;11739;54.750;9.124;2023-04-15T11:32:53;12.43;;;11.23;;
23140;SDS011;11739;54.750;9.124;2023-04-15T11:35:19;13.50;;;10.65;;
23140;SDS011;11739;54.750;9.124;2023-04-15T11:37:45;11.85;;;10.75;;
23140;SDS011;11739;54.750;9.124;2023-04-15T11:40:12;11.35;;;10.30;;
23140;SDS011;11739;54.750;9.124;2023-04-15T11:42:37;12.50;;;11.35;;
23140;SDS011;11739;54.750;9.124;2023-04-15T11:45:06;12.52;;;11.27;;
23140;SDS011;11739;54.750;9.124;2023-04-15T11:47:35;11.43;;;10.32;;
23140;SDS011;11739;54.750;9.124;2023-04-15T11:50:14;10.23;;;9.23;;
23140;SDS011;11739;54.750;9.124;2023-04-15T11:52:39;11.68;;;10.57;;
23140;SDS011;11739;54.750;9.124;2023-04-15T11:55:05;10.80;;;9.82;;
23140;SDS011;11739;54.750;9.124;2023-04-15T11:57:31;11.00;;;9.95;;
23140;SDS011;11739;54.750;9.124;2023-04-15T11:59:56;11.68;;;9.07;;
23140;SDS011;11739;54.750;9.124;2023-04-15T12:02:29;11.02;;;9.80;;
23140;SDS011;11739;54.750;9.124;2023-04-15T12:05:02;11.68;;;10.57;;
23140;SDS011;11739;54.750;9.124;2023-04-15T12:07:30;10.43;;;9.50;;
23140;SDS011;11739;54.750;9.124;2023-04-15T12:09:55;10.65;;;9.60;;
23140;SDS011;11739;54.750;9.124;2023-04-15T12:12:21;10.43;;;9.50;;
23140;SDS011;11739;54.750;9.124;2023-04-15T12:14:46;10.38;;;9.48;;
23140;SDS011;11739;54.750;9.124;2023-04-15T12:17:11;11.48;;;10.48;;
23140;SDS011;11739;54.750;9.124;2023-04-15T12:19:40;10.40;;;9.40;;
23140;SDS011;11739;54.750;9.124;2023-04-15T12:24:35;8.77;;;7.97;;
23140;SDS011;11739;54.750;9.124;2023-04-15T12:27:02;9.15;;;8.38;;
23140;SDS011;11739;54.750;9.124;2023-04-15T12:29:29;10.32;;;9.32;;
23140;SDS011;11739;54.750;9.124;2023-04-15T12:31:55;10.38;;;8.68;;
23140;SDS011;11739;54.750;9.124;2023-04-15T12:34:34;8.77;;;8.07;;
23140;SDS011;11739;54.750;9.124;2023-04-15T12:37:02;9.10;;;8.30;;
23140;SDS011;11739;54.750;9.124;2023-04-15T12:39:33;10.18;;;9.18;;
23140;SDS011;11739;54.750;9.124;2023-04-15T12:42:00;9.35;;;8.45;;
23140;SDS011;11739;54.750;9.124;2023-04-15T12:44:25;8.10;;;7.30;;
23140;SDS011;11739;54.750;9.124;2023-04-15T12:46:51;9.07;;;8.25;;
23140;SDS011;11739;54.750;9.124;2023-04-15T12:49:16;9.50;;;8.50;;
23140;SDS011;11739;54.750;9.124;2023-04-15T12:51:41;8.60;;;7.80;;
23140;SDS011;11739;54.750;9.124;2023-04-15T12:54:06;9.20;;;8.25;;
23140;SDS011;11739;54.750;9.124;2023-04-15T12:56:32;8.32;;;7.63;;
23140;SDS011;11739;54.750;9.124;2023-04-15T12:58:57;9.30;;;8.48;;
23140;SDS011;11739;54.750;9.124;2023-04-15T13:01:22;9.57;;;8.52;;
23140;SDS011;11739;54.750;9.124;2023-04-15T13:03:48;9.10;;;7.70;;
23140;SDS011;11739;54.750;9.124;2023-04-15T13:06:13;8.38;;;7.68;;
23140;SDS011;11739;54.750;9.124;2023-04-15T13:08:38;9.90;;;9.00;;
23140;SDS011;11739;54.750;9.124;2023-04-15T13:11:04;8.85;;;7.95;;
23140;SDS011;11739;54.750;9.124;2023-04-15T13:13:29;8.77;;;7.97;;
23140;SDS011;11739;54.750;9.124;2023-04-15T13:15:55;8.77;;;7.72;;
23140;SDS011;11739;54.750;9.124;2023-04-15T13:18:20;8.13;;;7.43;;
23140;SDS011;11739;54.750;9.124;2023-04-15T13:20:46;9.45;;;7.68;;
23140;SDS011;11739;54.750;9.124;2023-04-15T13:23:11;8.57;;;7.80;;
23140;SDS011;11739;54.750;9.124;2023-04-15T13:25:36;9.38;;;8.45;;
23140;SDS011;11739;54.750;9.124;2023-04-15T13:28:02;9.52;;;8.60;;
23140;SDS011;11739;54.750;9.124;2023-04-15T13:30:27;8.20;;;7.38;;
23140;SDS011;11739;54.750;9.124;2023-04-15T13:32:52;7.88;;;7.18;;
23140;SDS011;11739;54.750;9.124;2023-04-15T13:35:18;9.93;;;8.93;;
23140;SDS011;11739;54.750;9.124;2023-04-15T13:37:44;8.68;;;7.60;;
23140;SDS011;11739;54.750;9.124;2023-04-15T13:40:09;8.75;;;7.95;;
23140;SDS011;11739;54.750;9.124;2023-04-15T13:42:35;8.20;;;7.43;;
23140;SDS011;11739;54.750;9.124;2023-04-15T13:45:00;9.10;;;8.20;;
23140;SDS011;11739;54.750;9.124;2023-04-15T13:47:25;10.05;;;9.15;;
23140;SDS011;11739;54.750;9.124;2023-04-15T13:49:51;9.63;;;8.77;;
23140;SDS011;11739;54.750;9.124;2023-04-15T13:52:16;9.73;;;8.75;;
23140;SDS011;11739;54.750;9.124;2023-04-15T13:54:41;9.40;;;8.63;;
23140;SDS011;11739;54.750;9.124;2023-04-15T13:57:07;9.70;;;8.70;;
23140;SDS011;11739;54.750;9.124;2023-04-15T13:59:32;9.45;;;8.55;;
23140;SDS011;11739;54.750;9.124;2023-04-15T14:01:58;9.57;;;8.32;;
23140;SDS011;11739;54.750;9.124;2023-04-15T14:04:23;8.98;;;8.18;;
23140;SDS011;11739;54.750;9.124;2023-04-15T14:06:48;8.95;;;8.20;;
23140;SDS011;11739;54.750;9.124;2023-04-15T14:09:13;9.30;;;8.48;;
23140;SDS011;11739;54.750;9.124;2023-04-15T14:11:39;9.68;;;8.77;;
23140;SDS011;11739;54.750;9.124;2023-04-15T14:14:04;10.40;;;9.30;;
23140;SDS011;11739;54.750;9.124;2023-04-15T14:16:31;11.57;;;8.68;;
23140;SDS011;11739;54.750;9.124;2023-04-15T14:18:58;10.00;;;9.10;;
23140;SDS011;11739;54.750;9.124;2023-04-15T14:21:23;9.45;;;8.55;;
23140;SDS011;11739;54.750;9.124;2023-04-15T14:23:49;9.27;;;8.35;;
23140;SDS011;11739;54.750;9.124;2023-04-15T14:26:14;10.10;;;9.10;;
23140;SDS011;11739;54.750;9.124;2023-04-15T14:28:39;10.13;;;8.38;;
23140;SDS011;11739;54.750;9.124;2023-04-15T14:31:05;9.95;;;8.70;;
23140;SDS011;11739;54.750;9.124;2023-04-15T14:33:30;9.45;;;8.55;;
23140;SDS011;11739;54.750;9.124;2023-04-15T14:35:56;9.90;;;9.00;;
23140;SDS011;11739;54.750;9.124;2023-04-15T14:38:21;10.27;;;9.38;;
23140;SDS011;11739;54.750;9.124;2023-04-15T14:40:46;10.30;;;9.40;;
23140;SDS011;11739;54.750;9.124;2023-04-15T14:43:12;10.68;;;9.57;;